createdAt,value
2022-08-25T00:08:26.889Z,81.18
2022-08-25T00:30:16.777Z,81.56
2022-08-25T00:52:05.933Z,82.25
2022-08-25T01:13:55.640Z,82.59
2022-08-25T01:35:40.133Z,82.89
2022-08-25T01:57:26.322Z,83.14
2022-08-25T02:19:13.362Z,83.37
2022-08-25T02:40:59.890Z,83.39
2022-08-25T03:02:46.886Z,83.75
2022-08-25T03:24:32.722Z,84.26
2022-08-25T03:46:23.413Z,83.89
2022-08-25T04:08:09.360Z,83.82
2022-08-25T04:29:55.112Z,83.94
2022-08-25T04:51:42.517Z,83.77
2022-08-25T05:13:28.912Z,83.95
2022-08-25T05:35:16.249Z,84.97
2022-08-25T05:57:02.430Z,84.91
2022-08-25T06:18:48.197Z,84.18
2022-08-25T06:40:34.013Z,83.66
2022-08-25T07:02:21.864Z,83.33
2022-08-25T07:24:11.158Z,81.96
2022-08-25T07:45:57.160Z,79.08
2022-08-25T08:07:43.991Z,68.32
2022-08-25T08:29:30.157Z,51.20
2022-08-25T08:51:24.632Z,37.31
2022-08-25T09:13:19.258Z,27.31
2022-08-25T09:35:07.350Z,29.39
2022-08-25T09:56:55.506Z,38.70
2022-08-25T10:18:41.495Z,44.10
2022-08-25T10:40:34.123Z,42.88
2022-08-25T11:02:54.596Z,40.11
2022-08-25T11:24:58.260Z,36.80
2022-08-25T11:46:55.352Z,32.08
2022-08-25T12:09:15.929Z,33.81
2022-08-25T12:31:08.677Z,38.18
2022-08-25T12:52:56.232Z,35.56
2022-08-25T13:14:44.000Z,34.68
2022-08-25T13:36:54.077Z,29.53
2022-08-25T13:58:46.475Z,28.62
2022-08-25T14:20:34.201Z,32.77
2022-08-25T14:42:20.320Z,36.80
2022-08-25T15:04:10.548Z,42.18
2022-08-25T15:25:58.527Z,45.32
2022-08-25T15:47:44.424Z,44.95
2022-08-25T16:09:31.472Z,45.89
2022-08-25T16:31:20.726Z,48.00
2022-08-25T16:53:24.382Z,51.00
2022-08-25T17:15:11.509Z,53.94
2022-08-25T17:36:58.145Z,56.17
2022-08-25T17:58:44.587Z,58.49
2022-08-25T18:20:30.766Z,60.75
2022-08-25T18:42:16.583Z,61.99
2022-08-25T19:04:02.663Z,64.34
2022-08-25T19:25:48.502Z,66.30
2022-08-25T19:47:34.217Z,67.71
2022-08-25T20:09:36.048Z,69.36
2022-08-25T20:31:26.608Z,70.47
2022-08-25T20:53:13.522Z,71.84
2022-08-25T21:14:59.822Z,73.63
2022-08-25T21:36:47.943Z,74.49
2022-08-25T21:58:35.333Z,74.79
2022-08-25T22:20:21.320Z,75.25
2022-08-25T22:42:08.649Z,76.65
2022-08-25T23:03:54.464Z,77.33
2022-08-25T23:25:43.418Z,78.41
2022-08-25T23:47:29.308Z,78.72
